createdAt,value
2017-08-07T00:00:08.527Z,0.00
2017-08-07T00:00:56.607Z,0.00
2017-08-07T00:01:44.684Z,0.00
2017-08-07T00:02:33.595Z,0.00
2017-08-07T00:03:21.768Z,0.00
2017-08-07T00:04:09.771Z,0.00
2017-08-07T00:04:58.791Z,0.00
2017-08-07T00:05:46.821Z,0.00
2017-08-07T00:06:34.800Z,0.00
2017-08-07T00:07:24.103Z,0.00
2017-08-07T00:08:11.543Z,0.00
2017-08-07T00:08:59.952Z,0.00
2017-08-07T00:09:48.859Z,0.00
2017-08-07T00:10:36.939Z,0.00
2017-08-07T00:11:25.178Z,0.00
2017-08-07T00:12:13.089Z,0.00
2017-08-07T00:13:02.103Z,0.00
2017-08-07T00:13:50.272Z,0.00
2017-08-07T00:14:39.288Z,0.00
2017-08-07T00:15:27.390Z,0.00
2017-08-07T00:16:15.348Z,0.00
2017-08-07T00:17:04.327Z,0.00
2017-08-07T00:17:52.317Z,0.00
2017-08-07T00:18:40.448Z,0.00
2017-08-07T00:19:29.401Z,0.00
2017-08-07T00:20:17.457Z,0.00
2017-08-07T00:21:05.582Z,0.00
2017-08-07T00:21:54.554Z,0.00
2017-08-07T00:22:42.648Z,0.00
2017-08-07T00:23:30.798Z,0.00
2017-08-07T00:24:19.871Z,0.00
2017-08-07T00:25:07.788Z,0.00
2017-08-07T00:25:55.892Z,0.00
2017-08-07T00:26:43.848Z,0.00
2017-08-07T00:27:37.964Z,0.00
2017-08-07T00:28:38.016Z,0.00
2017-08-07T00:29:33.023Z,0.00
2017-08-07T00:30:34.057Z,0.00
2017-08-07T00:31:34.024Z,0.00
2017-08-07T00:32:34.225Z,0.00
2017-08-07T00:33:29.004Z,0.00
2017-08-07T00:34:23.181Z,0.00
2017-08-07T00:35:24.128Z,0.00
2017-08-07T00:36:25.171Z,0.00
2017-08-07T00:37:20.206Z,0.00
2017-08-07T00:38:14.307Z,0.00
2017-08-07T00:39:15.255Z,0.00
2017-08-07T00:40:15.428Z,0.00
2017-08-07T00:41:15.288Z,0.00
2017-08-07T00:42:10.299Z,0.00
2017-08-07T00:43:04.406Z,0.00
2017-08-07T00:44:10.400Z,0.00
2017-08-07T00:45:04.665Z,0.00
2017-08-07T00:46:04.590Z,0.00
2017-08-07T00:46:59.078Z,0.00
2017-08-07T00:47:59.465Z,0.00
2017-08-07T00:48:53.655Z,0.00
2017-08-07T00:49:53.569Z,0.00
2017-08-07T00:50:48.650Z,0.00
2017-08-07T00:51:43.652Z,0.00
2017-08-07T00:52:43.656Z,0.00
2017-08-07T00:53:38.768Z,0.00
2017-08-07T00:54:38.950Z,0.00
2017-08-07T00:55:38.831Z,0.00
2017-08-07T00:56:44.707Z,0.00
2017-08-07T00:57:39.298Z,0.00
2017-08-07T00:58:39.732Z,0.00
2017-08-07T00:59:39.800Z,0.00
2017-08-07T01:00:39.942Z,0.00
2017-08-07T01:01:34.868Z,0.00
2017-08-07T01:02:34.504Z,0.00
2017-08-07T01:03:28.570Z,0.00
2017-08-07T01:04:29.774Z,0.00
2017-08-07T01:05:30.751Z,0.00
2017-08-07T01:06:26.022Z,0.00
2017-08-07T01:07:19.744Z,0.00
2017-08-07T01:08:19.990Z,0.00
2017-08-07T01:09:15.212Z,0.00
2017-08-07T01:10:15.340Z,0.00
2017-08-07T01:11:09.203Z,0.00
2017-08-07T01:12:09.811Z,0.00
2017-08-07T01:13:11.227Z,0.00
2017-08-07T01:14:12.277Z,0.00
2017-08-07T01:15:07.008Z,0.00
2017-08-07T01:16:01.648Z,0.00
2017-08-07T01:17:01.466Z,0.00
2017-08-07T01:17:56.557Z,0.00
2017-08-07T01:18:56.153Z,0.00
2017-08-07T01:19:50.098Z,0.00
2017-08-07T01:20:50.730Z,0.00
2017-08-07T01:21:45.226Z,0.00
2017-08-07T01:22:40.227Z,0.00
2017-08-07T01:23:40.418Z,0.00
2017-08-07T01:24:35.289Z,0.00
2017-08-07T01:25:30.566Z,0.00
2017-08-07T01:26:30.581Z,0.00
2017-08-07T01:27:25.390Z,0.00
2017-08-07T01:28:20.462Z,0.00
2017-08-07T01:29:21.470Z,0.00
2017-08-07T01:30:22.274Z,0.00
2017-08-07T01:31:21.950Z,0.00
2017-08-07T01:32:16.785Z,0.00
2017-08-07T01:33:10.621Z,0.00
2017-08-07T01:34:10.546Z,0.00
2017-08-07T01:35:05.712Z,0.00
2017-08-07T01:36:06.453Z,0.00
2017-08-07T01:37:06.159Z,0.00
2017-08-07T01:38:11.843Z,0.00
2017-08-07T01:39:06.841Z,0.00
2017-08-07T01:40:06.844Z,0.00
2017-08-07T01:41:02.283Z,0.00
2017-08-07T01:41:57.524Z,0.00
2017-08-07T01:42:56.942Z,0.00
2017-08-07T01:43:52.114Z,0.00
2017-08-07T01:44:46.981Z,0.00
2017-08-07T01:45:47.719Z,0.00
2017-08-07T01:46:42.001Z,0.00
2017-08-07T01:47:37.111Z,0.00
2017-08-07T01:48:38.115Z,0.00
2017-08-07T01:49:39.693Z,0.00
2017-08-07T01:50:34.572Z,0.00
2017-08-07T01:51:28.199Z,0.00
2017-08-07T01:52:28.877Z,0.00
2017-08-07T01:53:28.910Z,0.00
2017-08-07T01:54:23.918Z,0.00
2017-08-07T01:55:18.047Z,0.00
2017-08-07T01:56:18.943Z,0.00
2017-08-07T01:57:18.987Z,0.00
2017-08-07T01:58:14.051Z,0.00
2017-08-07T01:59:14.043Z,0.00
2017-08-07T02:00:14.048Z,0.00
2017-08-07T02:01:20.201Z,0.00
2017-08-07T02:02:15.228Z,0.00
2017-08-07T02:03:15.194Z,0.00
2017-08-07T02:04:10.149Z,0.00
2017-08-07T02:05:05.287Z,0.00
2017-08-07T02:06:06.273Z,0.00
2017-08-07T02:07:06.285Z,0.00
2017-08-07T02:08:06.390Z,0.00
2017-08-07T02:09:01.384Z,0.00
2017-08-07T02:09:55.420Z,0.00
2017-08-07T02:10:56.416Z,0.00
2017-08-07T02:11:56.403Z,0.00
2017-08-07T02:12:56.632Z,0.00
2017-08-07T02:13:51.467Z,0.00
2017-08-07T02:14:45.622Z,0.00
2017-08-07T02:15:45.483Z,0.00
2017-08-07T02:16:40.692Z,0.00
2017-08-07T02:17:35.638Z,0.00
2017-08-07T02:18:36.717Z,0.00
2017-08-07T02:19:37.644Z,0.00
2017-08-07T02:20:32.776Z,0.00
2017-08-07T02:21:26.799Z,0.00
2017-08-07T02:22:26.868Z,0.00
2017-08-07T02:23:26.965Z,0.00
2017-08-07T02:24:21.968Z,0.00
2017-08-07T02:25:15.929Z,0.00
2017-08-07T02:26:15.897Z,0.00
2017-08-07T02:27:10.976Z,0.00
2017-08-07T02:28:06.037Z,0.00
2017-08-07T02:29:06.957Z,0.00
2017-08-07T02:30:07.161Z,0.00
2017-08-07T02:31:07.140Z,0.00
2017-08-07T02:32:07.164Z,0.00
2017-08-07T02:33:08.262Z,0.00
2017-08-07T02:34:09.109Z,0.00
2017-08-07T02:35:03.142Z,0.00
2017-08-07T02:36:03.285Z,0.00
2017-08-07T02:36:58.351Z,0.00
2017-08-07T02:37:53.393Z,0.00
2017-08-07T02:38:53.454Z,0.00
2017-08-07T02:39:48.468Z,0.00
2017-08-07T02:40:43.472Z,0.00
2017-08-07T02:41:43.615Z,0.00
2017-08-07T02:42:38.521Z,0.00
2017-08-07T02:43:33.550Z,0.00
2017-08-07T02:44:39.562Z,0.00
2017-08-07T02:45:33.634Z,0.00
2017-08-07T02:46:33.603Z,0.00
2017-08-07T02:47:28.755Z,0.00
2017-08-07T02:48:28.666Z,0.00
2017-08-07T02:49:22.839Z,0.00
2017-08-07T02:50:22.864Z,0.00
2017-08-07T02:51:17.873Z,0.00
2017-08-07T02:52:12.827Z,0.00
2017-08-07T02:53:12.979Z,0.00
2017-08-07T02:54:07.881Z,0.00
2017-08-07T02:55:03.026Z,0.00
2017-08-07T02:56:02.929Z,0.00
2017-08-07T02:56:58.129Z,0.00
2017-08-07T02:57:53.109Z,0.00
2017-08-07T02:58:54.159Z,0.00
2017-08-07T02:59:54.198Z,0.00
2017-08-07T03:00:54.155Z,0.00
2017-08-07T03:01:54.093Z,0.00
2017-08-07T03:02:55.302Z,0.00
2017-08-07T03:03:56.224Z,0.00
2017-08-07T03:04:50.332Z,0.00
2017-08-07T03:05:50.395Z,0.00
2017-08-07T03:06:45.344Z,0.00
2017-08-07T03:07:40.396Z,0.00
2017-08-07T03:08:40.515Z,0.00
2017-08-07T03:09:35.467Z,0.00
2017-08-07T03:10:30.556Z,0.00
2017-08-07T03:11:30.607Z,0.00
2017-08-07T03:12:25.584Z,0.00
2017-08-07T03:13:20.678Z,0.00
2017-08-07T03:14:21.565Z,0.00
2017-08-07T03:15:21.663Z,0.00
2017-08-07T03:16:21.727Z,0.00
2017-08-07T03:17:16.720Z,0.00
2017-08-07T03:18:10.733Z,0.00
2017-08-07T03:19:10.891Z,0.00
2017-08-07T03:20:05.873Z,0.00
2017-08-07T03:21:05.971Z,0.00
2017-08-07T03:21:59.926Z,0.00
2017-08-07T03:22:59.961Z,0.00
2017-08-07T03:23:55.021Z,0.00
2017-08-07T03:24:54.951Z,0.00
2017-08-07T03:25:55.094Z,0.00
2017-08-07T03:27:01.219Z,0.00
2017-08-07T03:28:01.068Z,0.00
2017-08-07T03:29:02.055Z,0.00
2017-08-07T03:29:56.122Z,0.00
2017-08-07T03:30:56.178Z,0.00
2017-08-07T03:31:51.240Z,0.00
2017-08-07T03:32:46.336Z,0.00
2017-08-07T03:33:46.315Z,0.00
2017-08-07T03:34:41.325Z,0.00
2017-08-07T03:35:41.349Z,0.00
2017-08-07T03:36:41.392Z,0.00
2017-08-07T03:37:41.445Z,0.00
2017-08-07T03:38:35.372Z,0.00
2017-08-07T03:39:35.482Z,0.00
2017-08-07T03:40:30.487Z,0.00
2017-08-07T03:41:30.443Z,0.00
2017-08-07T03:42:31.586Z,0.00
2017-08-07T03:43:25.654Z,0.00
2017-08-07T03:44:25.713Z,0.00
2017-08-07T03:45:20.636Z,0.00
2017-08-07T03:46:15.765Z,0.00
2017-08-07T03:47:16.671Z,0.00
2017-08-07T03:48:16.750Z,0.00
2017-08-07T03:49:11.869Z,0.00
2017-08-07T03:50:11.867Z,0.00
2017-08-07T03:51:05.806Z,0.00
2017-08-07T03:52:06.960Z,0.00
2017-08-07T03:53:06.954Z,0.00
2017-08-07T03:54:01.991Z,0.00
2017-08-07T03:54:56.994Z,0.00
2017-08-07T03:55:58.123Z,0.00
2017-08-07T03:56:58.027Z,0.00
2017-08-07T03:57:53.053Z,0.00
2017-08-07T03:58:53.107Z,0.00
2017-08-07T03:59:54.183Z,0.00
2017-08-07T04:00:54.085Z,0.00
2017-08-07T04:01:54.161Z,0.01
2017-08-07T04:02:54.472Z,0.01
2017-08-07T04:03:54.313Z,0.01
2017-08-07T04:04:54.309Z,0.01
2017-08-07T04:06:01.391Z,0.01
2017-08-07T04:07:02.412Z,0.01
2017-08-07T04:08:03.348Z,0.01
2017-08-07T04:09:03.373Z,0.01
2017-08-07T04:10:03.390Z,0.01
2017-08-07T04:11:03.333Z,0.01
2017-08-07T04:12:03.484Z,0.01
2017-08-07T04:13:03.632Z,0.01
2017-08-07T04:14:03.572Z,0.01
2017-08-07T04:15:03.632Z,0.01
2017-08-07T04:16:03.641Z,0.02
2017-08-07T04:17:03.652Z,0.02
2017-08-07T04:18:03.729Z,0.02
2017-08-07T04:19:03.634Z,0.02
2017-08-07T04:20:03.805Z,0.02
2017-08-07T04:21:03.848Z,0.02
2017-08-07T04:22:03.925Z,0.02
2017-08-07T04:23:04.012Z,0.02
2017-08-07T04:24:09.902Z,0.02
2017-08-07T04:25:04.838Z,0.02
2017-08-07T04:26:04.856Z,0.02
2017-08-07T04:27:04.973Z,0.02
2017-08-07T04:27:58.971Z,0.03
2017-08-07T04:28:59.079Z,0.03
2017-08-07T04:29:54.010Z,0.03
2017-08-07T04:30:49.005Z,0.03
2017-08-07T04:31:43.125Z,0.03
2017-08-07T04:32:43.073Z,0.03
2017-08-07T04:33:38.145Z,0.03
2017-08-07T04:34:38.258Z,0.03
2017-08-07T04:35:38.214Z,0.03
2017-08-07T04:36:38.245Z,0.04
2017-08-07T04:37:32.309Z,0.04
2017-08-07T04:38:32.437Z,0.04
2017-08-07T04:39:27.333Z,0.04
2017-08-07T04:40:22.445Z,0.04
2017-08-07T04:41:16.454Z,0.04
2017-08-07T04:42:16.462Z,0.04
2017-08-07T04:43:11.521Z,0.04
2017-08-07T04:44:06.545Z,0.04
2017-08-07T04:45:06.688Z,0.04
2017-08-07T04:46:01.585Z,0.05
2017-08-07T04:46:56.593Z,0.05
2017-08-07T04:47:45.615Z,0.05
2017-08-07T04:48:34.596Z,0.05
2017-08-07T04:49:34.715Z,0.05
2017-08-07T04:50:29.812Z,0.05
2017-08-07T04:51:23.930Z,0.05
2017-08-07T04:52:23.943Z,0.05
2017-08-07T04:53:18.055Z,0.05
2017-08-07T04:54:17.997Z,0.06
2017-08-07T04:55:07.098Z,0.07
2017-08-07T04:55:56.113Z,0.07
2017-08-07T04:56:50.402Z,0.07
2017-08-07T04:57:50.167Z,0.07
2017-08-07T04:58:45.112Z,0.08
2017-08-07T04:59:39.283Z,0.09
2017-08-07T05:00:39.295Z,0.09
2017-08-07T05:01:33.308Z,0.10
2017-08-07T05:02:34.386Z,0.11
2017-08-07T05:03:28.342Z,0.11
2017-08-07T05:04:23.324Z,0.11
2017-08-07T05:05:18.394Z,0.11
2017-08-07T05:06:18.543Z,0.11
2017-08-07T05:07:13.506Z,0.11
2017-08-07T05:08:07.588Z,0.11
2017-08-07T05:09:07.593Z,0.12
2017-08-07T05:10:02.628Z,0.12
2017-08-07T05:10:57.678Z,0.13
2017-08-07T05:11:58.654Z,0.14
2017-08-07T05:12:58.729Z,0.13
2017-08-07T05:13:53.756Z,0.14
2017-08-07T05:14:48.827Z,0.13
2017-08-07T05:15:37.867Z,0.14
2017-08-07T05:16:37.939Z,0.15
2017-08-07T05:17:32.929Z,0.15
2017-08-07T05:18:26.991Z,0.15
2017-08-07T05:19:27.083Z,0.15
2017-08-07T05:20:21.049Z,0.16
2017-08-07T05:21:16.082Z,0.16
2017-08-07T05:22:16.666Z,0.16
2017-08-07T05:23:11.168Z,0.18
2017-08-07T05:24:05.202Z,0.19
2017-08-07T05:25:00.322Z,0.20
2017-08-07T05:25:54.170Z,0.20
2017-08-07T05:26:54.369Z,0.21
2017-08-07T05:27:48.376Z,0.21
2017-08-07T05:28:48.488Z,0.20
2017-08-07T05:29:42.467Z,0.20
2017-08-07T05:30:36.478Z,0.19
2017-08-07T05:31:25.566Z,0.19
2017-08-07T05:32:20.578Z,0.19
2017-08-07T05:33:20.605Z,0.19
2017-08-07T05:34:20.506Z,0.20
2017-08-07T05:35:09.596Z,0.22
2017-08-07T05:36:04.750Z,0.22
2017-08-07T05:36:58.742Z,0.22
2017-08-07T05:37:52.886Z,0.21
2017-08-07T05:38:46.883Z,0.21
2017-08-07T05:39:41.881Z,0.20
2017-08-07T05:40:41.922Z,0.20
2017-08-07T05:41:36.382Z,0.19
2017-08-07T05:42:31.067Z,0.20
2017-08-07T05:43:31.117Z,0.19
2017-08-07T05:44:25.049Z,0.20
2017-08-07T05:45:13.101Z,0.20
2017-08-07T05:46:02.223Z,0.20
2017-08-07T05:46:56.518Z,0.20
2017-08-07T05:47:50.219Z,0.20
2017-08-07T05:48:44.431Z,0.19
2017-08-07T05:49:38.471Z,0.19
2017-08-07T05:50:27.588Z,0.19
2017-08-07T05:51:16.424Z,0.19
2017-08-07T05:52:16.852Z,0.19
2017-08-07T05:53:10.642Z,0.19
2017-08-07T05:53:59.631Z,0.23
2017-08-07T05:54:53.679Z,0.36
2017-08-07T05:55:42.768Z,0.38
2017-08-07T05:56:42.754Z,0.31
2017-08-07T05:57:32.187Z,0.32
2017-08-07T05:58:19.944Z,0.32
2017-08-07T05:59:20.837Z,0.30
2017-08-07T06:00:10.022Z,0.29
2017-08-07T06:00:58.025Z,0.33
2017-08-07T06:01:47.189Z,0.31
2017-08-07T06:02:42.150Z,0.31
2017-08-07T06:03:36.148Z,0.32
2017-08-07T06:04:25.200Z,0.33
2017-08-07T06:05:20.310Z,0.33
2017-08-07T06:06:15.272Z,0.33
2017-08-07T06:07:09.432Z,0.34
2017-08-07T06:07:58.622Z,0.34
2017-08-07T06:08:52.625Z,0.34
2017-08-07T06:09:46.518Z,0.34
2017-08-07T06:10:40.642Z,0.34
2017-08-07T06:11:29.130Z,0.35
2017-08-07T06:12:18.246Z,0.35
2017-08-07T06:13:07.215Z,0.35
2017-08-07T06:14:01.208Z,0.36
2017-08-07T06:14:56.749Z,0.35
2017-08-07T06:15:50.793Z,0.35
2017-08-07T06:16:38.878Z,0.36
2017-08-07T06:17:33.872Z,0.36
2017-08-07T06:18:29.002Z,0.36
2017-08-07T06:19:24.097Z,0.37
2017-08-07T06:20:18.013Z,0.38
2017-08-07T06:21:12.197Z,0.39
2017-08-07T06:22:00.092Z,0.39
2017-08-07T06:22:48.169Z,0.40
2017-08-07T06:23:42.354Z,0.40
2017-08-07T06:24:36.325Z,0.40
2017-08-07T06:25:31.565Z,0.41
2017-08-07T06:26:20.372Z,0.42
2017-08-07T06:27:14.702Z,0.44
2017-08-07T06:28:02.761Z,0.44
2017-08-07T06:29:02.625Z,0.44
2017-08-07T06:29:51.699Z,0.43
2017-08-07T06:30:45.739Z,0.42
2017-08-07T06:31:39.791Z,0.41
2017-08-07T06:32:28.860Z,0.40
2017-08-07T06:33:17.973Z,0.40
2017-08-07T06:34:12.028Z,0.41
2017-08-07T06:35:01.037Z,0.42
2017-08-07T06:36:01.067Z,0.44
2017-08-07T06:36:50.128Z,0.45
2017-08-07T06:37:39.036Z,0.47
2017-08-07T06:38:34.218Z,0.49
2017-08-07T06:39:29.197Z,0.50
2017-08-07T06:40:17.141Z,0.50
2017-08-07T06:41:11.321Z,0.26
2017-08-07T06:41:59.431Z,0.21
2017-08-07T06:42:48.500Z,0.22
2017-08-07T06:43:36.674Z,0.23
2017-08-07T06:44:31.589Z,0.21
2017-08-07T06:45:20.591Z,0.22
2017-08-07T06:46:09.068Z,0.23
2017-08-07T06:46:57.787Z,0.24
2017-08-07T06:47:45.748Z,0.23
2017-08-07T06:48:35.031Z,0.24
2017-08-07T06:49:35.884Z,0.26
2017-08-07T06:50:25.040Z,0.26
2017-08-07T06:51:13.208Z,0.25
2017-08-07T06:52:02.188Z,0.25
2017-08-07T06:53:02.140Z,0.25
2017-08-07T06:53:57.269Z,0.26
2017-08-07T06:54:52.254Z,0.31
2017-08-07T06:55:40.349Z,0.29
2017-08-07T06:56:35.332Z,0.33
2017-08-07T06:57:24.408Z,0.30
2017-08-07T06:58:13.435Z,0.33
2017-08-07T06:59:07.516Z,0.27
2017-08-07T06:59:55.485Z,0.28
2017-08-07T07:00:49.611Z,0.35
2017-08-07T07:01:43.810Z,0.44
2017-08-07T07:02:37.705Z,0.42
2017-08-07T07:03:31.777Z,0.29
2017-08-07T07:04:31.858Z,0.36
2017-08-07T07:05:20.948Z,0.27
2017-08-07T07:06:20.872Z,0.28
2017-08-07T07:07:14.886Z,0.28
2017-08-07T07:08:04.006Z,0.25
2017-08-07T07:09:04.011Z,0.25
2017-08-07T07:09:59.079Z,0.25
2017-08-07T07:10:53.179Z,0.43
2017-08-07T07:11:48.251Z,0.29
2017-08-07T07:12:48.191Z,0.56
2017-08-07T07:13:42.198Z,0.51
2017-08-07T07:14:37.362Z,0.57
2017-08-07T07:15:37.427Z,0.58
2017-08-07T07:16:32.508Z,0.57
2017-08-07T07:17:20.441Z,0.56
2017-08-07T07:18:09.642Z,0.56
2017-08-07T07:19:04.733Z,0.57
2017-08-07T07:19:53.758Z,0.56
2017-08-07T07:20:47.814Z,0.58
2017-08-07T07:21:42.039Z,0.58
2017-08-07T07:22:36.939Z,0.58
2017-08-07T07:23:25.841Z,0.58
2017-08-07T07:24:15.243Z,0.59
2017-08-07T07:25:09.168Z,0.59
2017-08-07T07:26:03.090Z,0.59
2017-08-07T07:26:52.569Z,0.57
2017-08-07T07:27:40.208Z,0.60
2017-08-07T07:28:29.247Z,0.61
2017-08-07T07:29:18.202Z,0.62
2017-08-07T07:30:12.375Z,0.60
2017-08-07T07:31:00.130Z,0.63
2017-08-07T07:31:48.500Z,0.62
2017-08-07T07:32:42.755Z,0.60
2017-08-07T07:33:31.640Z,0.46
2017-08-07T07:34:19.633Z,0.61
2017-08-07T07:35:08.763Z,0.60
2017-08-07T07:36:02.768Z,0.60
2017-08-07T07:36:50.630Z,0.28
2017-08-07T07:37:45.904Z,0.41
2017-08-07T07:38:34.951Z,0.68
2017-08-07T07:39:23.960Z,0.51
2017-08-07T07:40:18.184Z,0.32
2017-08-07T07:41:06.077Z,0.48
2017-08-07T07:42:00.181Z,0.34
2017-08-07T07:42:54.181Z,0.37
2017-08-07T07:43:47.696Z,0.44
2017-08-07T07:44:43.299Z,0.46
2017-08-07T07:45:37.255Z,0.36
2017-08-07T07:46:26.425Z,0.44
2017-08-07T07:47:15.442Z,0.69
2017-08-07T07:48:04.206Z,0.37
2017-08-07T07:48:59.621Z,0.42
2017-08-07T07:49:53.565Z,0.73
2017-08-07T07:50:47.562Z,0.40
2017-08-07T07:51:42.756Z,0.39
2017-08-07T07:52:36.788Z,0.70
2017-08-07T07:53:30.732Z,0.73
2017-08-07T07:54:19.979Z,0.72
2017-08-07T07:55:08.151Z,0.70
2017-08-07T07:56:03.112Z,0.69
2017-08-07T07:56:52.173Z,0.67
2017-08-07T07:57:46.321Z,0.67
2017-08-07T07:58:34.222Z,0.68
2017-08-07T07:59:28.348Z,0.69
2017-08-07T08:00:16.367Z,0.68
2017-08-07T08:01:10.480Z,0.69
2017-08-07T08:01:58.622Z,0.69
2017-08-07T08:02:52.614Z,0.70
2017-08-07T08:03:47.964Z,0.70
2017-08-07T08:04:42.718Z,0.69
2017-08-07T08:05:31.828Z,0.71
2017-08-07T08:06:26.754Z,0.72
2017-08-07T08:07:15.959Z,0.73
2017-08-07T08:08:09.921Z,0.72
2017-08-07T08:09:10.449Z,0.72
2017-08-07T08:10:05.148Z,0.71
2017-08-07T08:11:06.041Z,0.73
2017-08-07T08:12:06.275Z,0.74
2017-08-07T08:13:01.318Z,0.73
2017-08-07T08:13:50.398Z,0.73
2017-08-07T08:14:38.504Z,0.73
2017-08-07T08:15:32.623Z,0.73
2017-08-07T08:16:26.612Z,0.74
2017-08-07T08:17:15.769Z,0.74
2017-08-07T08:18:09.803Z,0.74
2017-08-07T08:19:03.833Z,0.74
2017-08-07T08:19:58.894Z,0.73
2017-08-07T08:20:47.987Z,0.72
2017-08-07T08:21:43.069Z,0.72
2017-08-07T08:22:38.195Z,0.72
2017-08-07T08:23:26.240Z,0.72
2017-08-07T08:24:21.167Z,0.73
2017-08-07T08:25:15.386Z,0.72
2017-08-07T08:26:04.578Z,0.72
2017-08-07T08:26:53.662Z,0.72
2017-08-07T08:27:48.601Z,0.72
2017-08-07T08:28:48.680Z,0.72
2017-08-07T08:29:54.813Z,0.63
2017-08-07T08:30:48.833Z,0.68
2017-08-07T08:31:38.112Z,0.70
2017-08-07T08:32:27.073Z,0.71
2017-08-07T08:33:16.050Z,0.71
2017-08-07T08:34:16.213Z,0.71
2017-08-07T08:35:10.371Z,0.70
2017-08-07T08:36:10.601Z,0.70
2017-08-07T08:37:05.326Z,0.70
2017-08-07T08:37:59.400Z,0.72
2017-08-07T08:38:53.516Z,0.72
2017-08-07T08:39:47.504Z,0.73
2017-08-07T08:40:41.727Z,0.74
2017-08-07T08:41:30.762Z,0.76
2017-08-07T08:42:24.741Z,0.74
2017-08-07T08:43:19.758Z,0.71
2017-08-07T08:44:07.944Z,0.73
2017-08-07T08:45:03.078Z,0.76
2017-08-07T08:45:52.073Z,0.77
2017-08-07T08:46:41.697Z,0.77
2017-08-07T08:47:29.191Z,0.76
2017-08-07T08:48:18.901Z,0.77
2017-08-07T08:49:12.385Z,0.78
2017-08-07T08:50:06.451Z,0.79
2017-08-07T08:50:54.500Z,0.79
2017-08-07T08:51:43.888Z,0.79
2017-08-07T08:52:31.735Z,0.79
2017-08-07T08:53:25.899Z,0.74
2017-08-07T08:54:13.888Z,0.72
2017-08-07T08:55:09.066Z,0.71
2017-08-07T08:55:57.110Z,0.66
2017-08-07T08:56:45.210Z,0.72
2017-08-07T08:57:33.157Z,0.73
2017-08-07T08:58:34.182Z,0.74
2017-08-07T08:59:22.371Z,0.75
2017-08-07T09:00:11.903Z,0.78
2017-08-07T09:01:05.600Z,0.78
2017-08-07T09:01:54.772Z,0.79
2017-08-07T09:02:49.812Z,0.81
2017-08-07T09:03:55.839Z,0.81
2017-08-07T09:04:44.809Z,0.81
2017-08-07T09:05:46.074Z,0.81
2017-08-07T09:06:35.028Z,0.81
2017-08-07T09:07:29.175Z,0.81
2017-08-07T09:08:23.194Z,0.79
2017-08-07T09:09:17.372Z,0.77
2017-08-07T09:10:11.407Z,0.76
2017-08-07T09:11:06.413Z,0.75
2017-08-07T09:12:00.530Z,0.73
2017-08-07T09:12:48.946Z,0.74
2017-08-07T09:13:48.757Z,0.77
2017-08-07T09:14:42.674Z,0.80
2017-08-07T09:15:36.921Z,0.81
2017-08-07T09:16:31.898Z,0.79
2017-08-07T09:17:26.917Z,0.78
2017-08-07T09:18:22.147Z,0.80
2017-08-07T09:19:17.046Z,0.81
2017-08-07T09:20:12.196Z,0.80
2017-08-07T09:21:01.184Z,0.80
2017-08-07T09:21:56.464Z,0.79
2017-08-07T09:22:56.490Z,0.82
2017-08-07T09:23:56.869Z,0.83
2017-08-07T09:24:45.606Z,0.82
2017-08-07T09:25:39.792Z,0.85
2017-08-07T09:26:33.742Z,0.85
2017-08-07T09:27:33.897Z,0.83
2017-08-07T09:28:35.074Z,0.83
2017-08-07T09:29:29.100Z,0.82
2017-08-07T09:30:18.121Z,0.81
2017-08-07T09:31:12.221Z,0.79
2017-08-07T09:32:12.294Z,0.78
2017-08-07T09:33:06.467Z,0.78
2017-08-07T09:34:06.442Z,0.77
2017-08-07T09:35:00.487Z,0.74
2017-08-07T09:35:55.431Z,0.78
2017-08-07T09:36:49.666Z,0.79
2017-08-07T09:37:37.665Z,0.80
2017-08-07T09:38:25.715Z,0.78
2017-08-07T09:39:19.864Z,0.80
2017-08-07T09:40:13.850Z,0.81
2017-08-07T09:41:13.902Z,0.83
2017-08-07T09:42:08.917Z,0.84
2017-08-07T09:43:03.078Z,0.86
2017-08-07T09:43:57.024Z,0.86
2017-08-07T09:44:52.181Z,0.87
2017-08-07T09:45:41.513Z,0.86
2017-08-07T09:46:30.274Z,0.74
2017-08-07T09:47:25.311Z,0.86
2017-08-07T09:48:19.564Z,0.88
2017-08-07T09:49:14.566Z,0.87
2017-08-07T09:50:14.552Z,0.88
2017-08-07T09:51:03.773Z,0.87
2017-08-07T09:51:58.653Z,0.88
2017-08-07T09:52:58.698Z,0.89
2017-08-07T09:53:52.864Z,0.87
2017-08-07T09:54:46.964Z,0.89
2017-08-07T09:55:35.109Z,0.87
2017-08-07T09:56:35.351Z,0.89
2017-08-07T09:57:29.354Z,0.81
2017-08-07T09:58:23.365Z,0.95
2017-08-07T09:59:18.299Z,0.79
2017-08-07T10:00:18.458Z,0.83
2017-08-07T10:01:18.484Z,0.86
2017-08-07T10:02:07.862Z,0.92
2017-08-07T10:03:01.684Z,0.92
2017-08-07T10:03:50.750Z,0.90
2017-08-07T10:04:44.891Z,0.89
2017-08-07T10:05:39.855Z,0.86
2017-08-07T10:06:33.923Z,0.89
2017-08-07T10:07:29.114Z,0.88
2017-08-07T10:08:23.156Z,0.91
2017-08-07T10:09:23.187Z,0.90
2017-08-07T10:10:17.194Z,0.94
2017-08-07T10:11:05.198Z,0.90
2017-08-07T10:12:00.380Z,0.83
2017-08-07T10:12:55.422Z,0.24
2017-08-07T10:13:49.424Z,0.23
2017-08-07T10:14:43.524Z,0.23
2017-08-07T10:15:37.674Z,0.25
2017-08-07T10:16:26.713Z,0.76
2017-08-07T10:17:20.773Z,0.82
2017-08-07T10:18:14.832Z,0.83
2017-08-07T10:19:08.851Z,0.91
2017-08-07T10:20:02.968Z,0.84
2017-08-07T10:21:03.022Z,0.87
2017-08-07T10:22:03.044Z,0.58
2017-08-07T10:22:52.087Z,0.91
2017-08-07T10:23:40.476Z,0.90
2017-08-07T10:24:34.318Z,0.93
2017-08-07T10:25:28.352Z,0.96
2017-08-07T10:26:22.476Z,0.94
2017-08-07T10:27:16.489Z,0.89
2017-08-07T10:28:05.633Z,0.89
2017-08-07T10:29:01.040Z,0.82
2017-08-07T10:29:49.877Z,0.78
2017-08-07T10:30:43.902Z,0.58
2017-08-07T10:31:38.098Z,0.80
2017-08-07T10:32:32.003Z,0.81
2017-08-07T10:33:27.056Z,0.86
2017-08-07T10:34:27.102Z,0.87
2017-08-07T10:35:27.194Z,0.83
2017-08-07T10:36:21.387Z,0.79
2017-08-07T10:37:16.486Z,0.77
2017-08-07T10:38:05.599Z,0.77
2017-08-07T10:38:59.730Z,0.75
2017-08-07T10:39:48.759Z,0.74
2017-08-07T10:40:48.746Z,0.74
2017-08-07T10:41:42.842Z,0.78
2017-08-07T10:42:37.865Z,0.80
2017-08-07T10:43:25.960Z,0.81
2017-08-07T10:44:21.056Z,0.84
2017-08-07T10:45:15.356Z,0.77
2017-08-07T10:46:15.279Z,0.83
2017-08-07T10:47:10.294Z,0.86
2017-08-07T10:48:05.512Z,0.86
2017-08-07T10:48:59.323Z,0.85
2017-08-07T10:49:53.608Z,0.84
2017-08-07T10:50:53.603Z,0.82
2017-08-07T10:51:47.727Z,0.85
2017-08-07T10:52:36.810Z,0.28
2017-08-07T10:53:30.824Z,0.88
2017-08-07T10:54:24.840Z,0.87
2017-08-07T10:55:13.057Z,0.89
2017-08-07T10:56:08.124Z,0.91
2017-08-07T10:57:03.200Z,0.93
2017-08-07T10:57:57.213Z,0.91
2017-08-07T10:58:46.271Z,0.86
2017-08-07T10:59:40.397Z,0.84
2017-08-07T11:00:40.629Z,0.81
2017-08-07T11:01:35.903Z,0.80
2017-08-07T11:02:29.747Z,0.83
2017-08-07T11:03:23.772Z,0.86
2017-08-07T11:04:12.902Z,0.84
2017-08-07T11:05:01.894Z,0.85
2017-08-07T11:05:55.969Z,0.39
2017-08-07T11:06:50.057Z,0.86
2017-08-07T11:07:44.229Z,0.48
2017-08-07T11:08:44.183Z,0.47
2017-08-07T11:09:38.331Z,0.82
2017-08-07T11:10:33.549Z,0.65
2017-08-07T11:11:28.541Z,0.92
2017-08-07T11:12:16.924Z,0.94
2017-08-07T11:13:11.789Z,0.93
2017-08-07T11:14:05.816Z,0.32
2017-08-07T11:14:59.942Z,0.89
2017-08-07T11:15:54.872Z,0.90
2017-08-07T11:16:50.084Z,0.85
2017-08-07T11:17:44.129Z,0.84
2017-08-07T11:18:39.197Z,0.60
2017-08-07T11:19:33.290Z,0.84
2017-08-07T11:20:28.362Z,0.84
2017-08-07T11:21:16.489Z,0.87
2017-08-07T11:22:05.514Z,0.90
2017-08-07T11:22:59.695Z,0.90
2017-08-07T11:23:54.697Z,0.90
2017-08-07T11:24:48.781Z,0.89
2017-08-07T11:25:43.868Z,0.89
2017-08-07T11:26:43.889Z,0.88
2017-08-07T11:27:38.994Z,0.86
2017-08-07T11:28:28.192Z,0.81
2017-08-07T11:29:17.262Z,0.84
2017-08-07T11:30:11.240Z,0.89
2017-08-07T11:31:05.371Z,0.90
2017-08-07T11:31:59.472Z,0.91
2017-08-07T11:32:53.529Z,0.91
2017-08-07T11:33:47.604Z,0.94
2017-08-07T11:34:36.705Z,0.91
2017-08-07T11:35:30.829Z,0.93
2017-08-07T11:36:31.957Z,0.89
2017-08-07T11:37:21.015Z,0.62
2017-08-07T11:38:10.189Z,0.66
2017-08-07T11:39:04.481Z,0.60
2017-08-07T11:39:58.275Z,0.94
2017-08-07T11:40:47.218Z,0.96
2017-08-07T11:41:41.389Z,0.56
2017-08-07T11:42:35.416Z,0.72
2017-08-07T11:43:30.568Z,0.95
2017-08-07T11:44:19.245Z,0.73
2017-08-07T11:45:12.705Z,0.32
2017-08-07T11:46:01.794Z,0.30
2017-08-07T11:46:50.002Z,0.20
2017-08-07T11:47:38.981Z,0.29
2017-08-07T11:48:33.069Z,0.29
2017-08-07T11:49:27.140Z,0.29
2017-08-07T11:50:21.153Z,0.42
2017-08-07T11:51:15.323Z,0.91
2017-08-07T11:52:10.341Z,0.64
2017-08-07T11:53:04.373Z,0.98
2017-08-07T11:53:58.451Z,0.98
2017-08-07T11:54:47.772Z,0.96
2017-08-07T11:55:41.613Z,0.96
2017-08-07T11:56:29.721Z,0.95
2017-08-07T11:57:18.839Z,0.95
2017-08-07T11:58:06.853Z,0.94
2017-08-07T11:58:56.034Z,0.38
2017-08-07T11:59:56.031Z,0.89
2017-08-07T12:00:45.105Z,0.90
2017-08-07T12:01:34.207Z,0.86
2017-08-07T12:02:22.330Z,0.86
2017-08-07T12:03:22.380Z,0.89
2017-08-07T12:04:16.488Z,0.90
2017-08-07T12:05:05.913Z,0.90
2017-08-07T12:05:59.615Z,0.89
2017-08-07T12:06:48.780Z,0.88
2017-08-07T12:07:37.757Z,0.87
2017-08-07T12:08:31.931Z,0.87